createdAt,value
2023-12-21T00:01:52.283Z,98.79
2023-12-21T00:04:20.581Z,98.84
2023-12-21T00:06:50.201Z,98.91
2023-12-21T00:09:18.410Z,98.91
2023-12-21T00:11:46.596Z,98.98
2023-12-21T00:14:14.846Z,99.00
2023-12-21T00:16:43.118Z,99.02
2023-12-21T00:19:11.500Z,99.08
2023-12-21T00:21:39.891Z,99.11
2023-12-21T00:24:09.803Z,99.11
2023-12-21T00:26:37.898Z,99.14
2023-12-21T00:29:06.020Z,99.14
2023-12-21T00:31:34.530Z,99.17
2023-12-21T00:34:02.791Z,99.17
2023-12-21T00:36:31.111Z,99.17
2023-12-21T00:38:59.341Z,99.22
2023-12-21T00:41:29.453Z,99.25
2023-12-21T00:44:00.647Z,99.29
2023-12-21T00:46:28.771Z,99.26
2023-12-21T00:48:57.185Z,99.25
2023-12-21T00:51:25.316Z,99.31
2023-12-21T00:53:53.331Z,99.33
2023-12-21T00:56:24.570Z,99.33
2023-12-21T00:58:54.069Z,99.31
2023-12-21T01:01:22.294Z,99.32
2023-12-21T01:03:50.422Z,99.30
2023-12-21T01:06:18.593Z,99.34
2023-12-21T01:08:46.768Z,99.32
2023-12-21T01:11:15.189Z,99.33
2023-12-21T01:13:43.350Z,99.31
2023-12-21T01:16:14.635Z,99.28
2023-12-21T01:18:43.348Z,99.29
2023-12-21T01:21:11.696Z,99.31
2023-12-21T01:23:39.739Z,99.32
2023-12-21T01:26:07.905Z,99.32
2023-12-21T01:28:36.228Z,99.27
2023-12-21T01:31:04.464Z,99.27
2023-12-21T01:33:36.356Z,99.25
2023-12-21T01:36:08.714Z,99.28
2023-12-21T01:38:36.870Z,99.24
2023-12-21T01:41:05.208Z,99.25
2023-12-21T01:43:33.385Z,99.23
2023-12-21T01:46:01.851Z,99.27
2023-12-21T01:48:31.918Z,99.24
2023-12-21T01:51:00.699Z,99.26
2023-12-21T01:53:29.316Z,99.26
2023-12-21T01:55:57.455Z,99.25
2023-12-21T01:58:25.742Z,99.26
2023-12-21T02:00:55.006Z,99.27
2023-12-21T02:03:23.184Z,99.31
2023-12-21T02:05:51.350Z,99.27
2023-12-21T02:08:20.993Z,99.32
2023-12-21T02:10:49.155Z,99.30
2023-12-21T02:13:17.718Z,99.31
2023-12-21T02:15:45.856Z,99.32
2023-12-21T02:18:14.086Z,99.36
2023-12-21T02:20:44.872Z,99.34
2023-12-21T02:23:14.225Z,99.35
2023-12-21T02:25:43.798Z,99.33
2023-12-21T02:28:12.023Z,99.38
2023-12-21T02:30:40.188Z,99.37
2023-12-21T02:33:08.355Z,99.36
2023-12-21T02:35:37.031Z,99.37
2023-12-21T02:38:05.590Z,99.40
2023-12-21T02:40:33.824Z,99.41
2023-12-21T02:43:03.330Z,99.42
2023-12-21T02:45:33.037Z,99.43
2023-12-21T02:48:01.159Z,99.44
2023-12-21T02:50:29.249Z,99.44
2023-12-21T02:52:57.321Z,99.45
2023-12-21T02:55:25.459Z,99.49
2023-12-21T02:57:53.575Z,99.48
2023-12-21T03:00:23.003Z,99.51
2023-12-21T03:02:51.317Z,99.54
2023-12-21T03:05:19.367Z,99.55
2023-12-21T03:07:47.492Z,99.55
2023-12-21T03:10:16.774Z,99.54
2023-12-21T03:12:45.047Z,99.57
2023-12-21T03:15:13.484Z,99.57
2023-12-21T03:17:42.877Z,99.61
2023-12-21T03:20:12.368Z,99.59
2023-12-21T03:22:40.520Z,99.61
2023-12-21T03:25:10.899Z,99.63
2023-12-21T03:27:39.104Z,99.63
2023-12-21T03:30:08.762Z,99.62
2023-12-21T03:32:37.917Z,99.68
2023-12-21T03:35:09.099Z,99.65
2023-12-21T03:37:39.409Z,99.67
2023-12-21T03:40:09.313Z,99.70
2023-12-21T03:42:37.421Z,99.72
2023-12-21T03:45:06.568Z,99.71
2023-12-21T03:47:34.769Z,99.72
2023-12-21T03:50:05.172Z,99.76
2023-12-21T03:52:34.641Z,99.74
2023-12-21T03:55:02.888Z,99.76
2023-12-21T03:57:30.933Z,99.76
2023-12-21T03:59:59.066Z,99.78
2023-12-21T04:02:27.197Z,99.79
2023-12-21T04:04:55.374Z,99.78
2023-12-21T04:07:23.513Z,99.84
2023-12-21T04:09:52.871Z,99.82
2023-12-21T04:12:20.941Z,99.82
2023-12-21T04:14:48.980Z,99.84
2023-12-21T04:17:17.217Z,99.89
2023-12-21T04:19:45.739Z,99.86
2023-12-21T04:22:13.997Z,99.91
2023-12-21T04:24:42.994Z,99.89
2023-12-21T04:27:12.339Z,99.85
2023-12-21T04:29:40.529Z,99.91
2023-12-21T04:32:09.760Z,99.88
2023-12-21T04:34:37.953Z,99.90
2023-12-21T04:37:06.105Z,99.87
2023-12-21T04:39:34.203Z,99.88
2023-12-21T04:42:02.719Z,99.92
2023-12-21T04:44:32.140Z,99.92
2023-12-21T04:47:00.397Z,99.90
2023-12-21T04:49:28.587Z,99.91
2023-12-21T04:51:56.847Z,99.90
2023-12-21T04:54:25.178Z,99.91
2023-12-21T04:56:53.192Z,99.88
2023-12-21T04:59:21.248Z,99.89
2023-12-21T05:01:52.575Z,99.90
2023-12-21T05:04:20.714Z,99.90
2023-12-21T05:06:48.711Z,99.90
2023-12-21T05:09:16.797Z,99.90
2023-12-21T05:11:44.824Z,99.90
2023-12-21T05:14:12.950Z,99.90
2023-12-21T05:16:41.517Z,99.90
2023-12-21T05:19:11.096Z,99.87
2023-12-21T05:21:39.633Z,99.88
2023-12-21T05:24:07.943Z,99.87
2023-12-21T05:26:36.047Z,99.87
2023-12-21T05:29:04.180Z,99.89
2023-12-21T05:31:32.390Z,99.89
2023-12-21T05:34:00.715Z,99.91
2023-12-21T05:36:30.313Z,99.86
2023-12-21T05:38:58.482Z,99.86
2023-12-21T05:41:26.751Z,99.87
2023-12-21T05:43:56.803Z,99.87
2023-12-21T05:46:24.893Z,99.86
2023-12-21T05:48:53.067Z,99.87
2023-12-21T05:51:21.168Z,99.86
2023-12-21T05:53:50.858Z,99.85
2023-12-21T05:56:18.990Z,99.83
2023-12-21T05:58:46.492Z,99.84
2023-12-21T06:01:14.722Z,99.84
2023-12-21T06:03:43.192Z,99.81
2023-12-21T06:06:11.540Z,99.85
2023-12-21T06:08:40.303Z,99.82
2023-12-21T06:11:09.868Z,99.80
2023-12-21T06:13:38.064Z,99.83
2023-12-21T06:16:12.703Z,99.77
2023-12-21T06:18:41.414Z,99.74
2023-12-21T06:21:09.706Z,99.80
2023-12-21T06:23:37.742Z,99.80
2023-12-21T06:26:06.072Z,99.77
2023-12-21T06:28:35.545Z,99.76
2023-12-21T06:31:04.967Z,99.75
2023-12-21T06:33:33.407Z,99.73
2023-12-21T06:36:01.696Z,99.72
2023-12-21T06:38:29.815Z,99.72
2023-12-21T06:40:57.948Z,99.68
2023-12-21T06:43:26.833Z,99.66
2023-12-21T06:45:57.038Z,99.62
2023-12-21T06:48:25.631Z,99.57
2023-12-21T06:50:53.783Z,99.57
2023-12-21T06:53:21.954Z,99.53
2023-12-21T06:55:50.379Z,99.53
2023-12-21T06:58:19.045Z,99.53
2023-12-21T07:00:48.773Z,99.54
2023-12-21T07:03:18.463Z,99.50
2023-12-21T07:05:46.768Z,99.49
2023-12-21T07:08:15.087Z,99.50
2023-12-21T07:10:44.702Z,99.49
2023-12-21T07:13:13.095Z,99.51
2023-12-21T07:15:42.484Z,99.51
2023-12-21T07:18:10.923Z,99.49
2023-12-21T07:20:40.492Z,99.48
2023-12-21T07:23:08.640Z,99.51
2023-12-21T07:25:36.843Z,99.48
2023-12-21T07:28:05.569Z,99.57
2023-12-21T07:30:33.759Z,99.71
2023-12-21T07:33:03.473Z,99.67
2023-12-21T07:35:33.536Z,99.72
2023-12-21T07:38:03.360Z,99.71
2023-12-21T07:40:31.570Z,99.72
2023-12-21T07:42:59.758Z,99.66
2023-12-21T07:45:28.155Z,99.65
2023-12-21T07:47:59.910Z,99.65
2023-12-21T07:50:28.584Z,99.65
2023-12-21T07:52:57.705Z,99.65
2023-12-21T07:55:32.798Z,99.62
2023-12-21T07:58:02.358Z,99.65
2023-12-21T08:00:30.508Z,99.65
2023-12-21T08:02:58.737Z,99.62
2023-12-21T08:05:26.839Z,99.55
2023-12-21T08:07:55.056Z,99.58
2023-12-21T08:10:23.353Z,99.52
2023-12-21T08:12:52.979Z,99.46
2023-12-21T08:15:28.034Z,99.41
2023-12-21T08:18:16.384Z,99.40
2023-12-21T08:20:48.682Z,99.39
2023-12-21T08:23:17.516Z,99.39
2023-12-21T08:25:50.532Z,99.41
2023-12-21T08:28:20.439Z,99.38
2023-12-21T08:30:48.945Z,99.39
2023-12-21T08:33:22.833Z,99.38
2023-12-21T08:35:54.779Z,99.41
2023-12-21T08:38:26.374Z,99.41
2023-12-21T08:40:54.711Z,99.38
2023-12-21T08:43:28.668Z,99.41
2023-12-21T08:45:59.743Z,99.40
2023-12-21T08:48:45.515Z,99.41
2023-12-21T08:51:23.646Z,99.35
2023-12-21T08:53:55.815Z,99.36
2023-12-21T08:56:40.464Z,99.37
2023-12-21T08:59:19.176Z,99.37
2023-12-21T09:01:52.808Z,99.36
2023-12-21T09:04:26.304Z,99.37
2023-12-21T09:07:10.203Z,99.35
2023-12-21T09:09:58.225Z,99.35
2023-12-21T09:12:29.661Z,99.34
2023-12-21T09:15:04.995Z,99.34
2023-12-21T09:17:35.892Z,99.35
2023-12-21T09:20:14.876Z,99.30
2023-12-21T09:22:47.479Z,99.31
2023-12-21T09:25:24.432Z,99.31
2023-12-21T09:27:55.172Z,99.29
2023-12-21T09:30:33.750Z,99.30
2023-12-21T09:33:09.768Z,99.29
2023-12-21T09:35:47.131Z,99.26
2023-12-21T09:41:10.294Z,99.25
2023-12-21T09:43:41.897Z,99.28
2023-12-21T12:39:33.967Z,99.30
2023-12-21T12:42:06.672Z,99.29
2023-12-21T12:44:36.422Z,99.28
2023-12-21T12:47:07.049Z,99.31
2023-12-21T12:49:39.877Z,99.30
2023-12-21T12:52:17.288Z,99.29
2023-12-21T12:54:48.179Z,99.34
2023-12-21T12:57:18.574Z,99.32
2023-12-21T12:59:46.871Z,99.38
2023-12-21T13:02:15.594Z,99.37
2023-12-21T13:04:44.584Z,99.35
2023-12-21T13:07:13.049Z,99.32
2023-12-21T13:09:41.204Z,99.35
2023-12-21T13:12:10.896Z,99.32
2023-12-21T13:14:40.002Z,99.33
2023-12-21T13:17:08.350Z,99.36
2023-12-21T13:19:39.383Z,99.37
2023-12-21T13:22:07.920Z,99.38
2023-12-21T13:24:37.420Z,99.36
2023-12-21T13:27:06.880Z,99.38
2023-12-21T13:29:36.397Z,99.40
2023-12-21T13:32:07.627Z,99.40
2023-12-21T13:34:37.451Z,99.40
2023-12-21T13:37:07.251Z,99.44
2023-12-21T13:39:35.726Z,99.43
2023-12-21T13:42:04.311Z,99.48
2023-12-21T13:44:33.179Z,99.49
2023-12-21T13:47:02.788Z,99.48
2023-12-21T13:49:31.177Z,99.51
2023-12-21T13:51:59.628Z,99.47
2023-12-21T13:54:27.849Z,99.45
2023-12-21T13:57:04.272Z,99.53
2023-12-21T13:59:39.738Z,99.66
2023-12-21T14:02:10.246Z,99.69
2023-12-21T14:04:39.190Z,99.64
2023-12-21T14:07:07.575Z,99.58
2023-12-21T14:09:38.860Z,99.54
2023-12-21T14:12:07.757Z,99.54
2023-12-21T14:14:36.702Z,99.51
2023-12-21T14:17:11.006Z,99.50
2023-12-21T14:19:39.203Z,99.38
2023-12-21T14:22:07.425Z,99.32
2023-12-21T14:24:36.965Z,99.25
2023-12-21T14:27:06.124Z,99.25
2023-12-21T14:29:34.545Z,99.25
2023-12-21T14:32:02.920Z,99.17
2023-12-21T14:34:32.907Z,99.17
2023-12-21T14:37:01.303Z,99.16
2023-12-21T14:39:29.746Z,99.13
2023-12-21T14:41:57.877Z,99.11
2023-12-21T14:44:26.222Z,99.06
2023-12-21T14:46:54.603Z,99.01
2023-12-21T14:49:22.885Z,98.97
2023-12-21T14:51:53.358Z,98.80
2023-12-21T14:54:21.648Z,98.65
2023-12-21T14:56:49.952Z,98.45
2023-12-21T14:59:18.166Z,98.29
2023-12-21T15:01:49.735Z,98.21
2023-12-21T15:04:18.256Z,97.96
2023-12-21T15:06:46.893Z,97.74
2023-12-21T15:09:16.461Z,97.71
2023-12-21T15:11:44.804Z,97.69
2023-12-21T15:14:14.922Z,97.56
2023-12-21T15:16:43.578Z,97.53
2023-12-21T15:19:15.165Z,97.49
2023-12-21T15:21:44.541Z,97.50
2023-12-21T15:24:13.606Z,97.42
2023-12-21T15:26:44.486Z,97.25
2023-12-21T15:29:13.710Z,97.20
2023-12-21T15:31:43.213Z,97.13
2023-12-21T15:34:13.041Z,97.16
2023-12-21T15:36:42.586Z,97.18
2023-12-21T15:39:11.950Z,97.16
2023-12-21T15:41:41.004Z,97.21
2023-12-21T15:44:11.568Z,97.23
2023-12-21T15:46:41.057Z,97.29
2023-12-21T15:49:10.524Z,97.30
2023-12-21T15:51:39.926Z,97.33
2023-12-21T15:54:12.730Z,97.28
2023-12-21T15:56:43.240Z,97.09
2023-12-21T15:59:14.951Z,97.05
2023-12-21T16:01:44.115Z,97.02
2023-12-21T16:04:14.347Z,97.09
2023-12-21T16:06:43.528Z,97.10
2023-12-21T16:09:12.897Z,97.06
2023-12-21T16:11:41.507Z,97.13
2023-12-21T16:14:11.146Z,97.19
2023-12-21T16:16:41.759Z,97.25
2023-12-21T16:19:10.824Z,97.25
2023-12-21T16:21:40.865Z,97.27
2023-12-21T16:24:11.371Z,97.32
2023-12-21T16:26:43.891Z,97.37
2023-12-21T16:29:13.003Z,97.36
2023-12-21T16:31:43.236Z,97.36
2023-12-21T16:34:12.493Z,97.32
2023-12-21T16:36:41.500Z,97.25
2023-12-21T16:39:14.310Z,97.29
2023-12-21T16:41:45.216Z,97.28
2023-12-21T16:44:14.158Z,97.27
2023-12-21T16:46:45.143Z,97.32
2023-12-21T16:49:14.998Z,97.24
2023-12-21T16:51:43.817Z,97.21
2023-12-21T16:54:13.286Z,97.20
2023-12-21T16:56:45.016Z,97.22
2023-12-21T16:59:14.312Z,97.20
2023-12-21T17:01:46.612Z,97.22
2023-12-21T17:04:15.681Z,97.25
2023-12-21T17:06:47.233Z,97.30
2023-12-21T17:09:16.060Z,97.38
2023-12-21T17:11:45.423Z,97.32
2023-12-21T17:14:17.115Z,97.41
2023-12-21T17:16:49.502Z,97.46
2023-12-21T17:19:23.713Z,97.48
2023-12-21T17:21:53.130Z,97.57
2023-12-21T17:24:23.236Z,97.60
2023-12-21T17:26:53.830Z,97.63
2023-12-21T17:29:22.862Z,97.64
2023-12-21T17:31:53.943Z,97.63
2023-12-21T17:34:23.158Z,97.66
2023-12-21T17:36:52.554Z,97.65
2023-12-21T17:39:21.634Z,97.68
2023-12-21T17:41:50.860Z,97.70
2023-12-21T17:44:21.000Z,97.73
2023-12-21T17:46:50.129Z,97.75
2023-12-21T17:49:24.303Z,97.77
2023-12-21T17:51:53.314Z,97.78
2023-12-21T17:54:23.572Z,97.77
2023-12-21T17:56:54.976Z,97.80
2023-12-21T17:59:26.974Z,97.85
2023-12-21T18:01:56.535Z,97.87
2023-12-21T18:04:28.057Z,97.88
2023-12-21T18:07:01.264Z,97.87
2023-12-21T18:09:30.258Z,97.86
2023-12-21T18:11:58.372Z,97.87
2023-12-21T18:14:27.909Z,97.92
2023-12-21T18:16:59.053Z,97.95
2023-12-21T18:19:30.524Z,97.93
2023-12-21T18:22:02.616Z,97.96
2023-12-21T18:24:31.295Z,97.90
2023-12-21T18:26:59.482Z,97.85
2023-12-21T18:29:32.876Z,97.70
2023-12-21T18:32:04.181Z,97.47
2023-12-21T18:34:34.096Z,97.18
2023-12-21T18:37:02.752Z,96.98
2023-12-21T18:39:31.273Z,96.97
2023-12-21T18:41:59.805Z,96.89
2023-12-21T18:44:28.374Z,96.96
2023-12-21T18:46:56.542Z,96.93
2023-12-21T18:49:25.180Z,97.03
2023-12-21T18:51:55.747Z,97.07
2023-12-21T18:54:24.138Z,97.17
2023-12-21T18:56:52.365Z,97.34
2023-12-21T18:59:24.137Z,97.35
2023-12-21T19:01:52.299Z,97.47
2023-12-21T19:04:20.598Z,97.52
2023-12-21T19:06:49.570Z,97.64
2023-12-21T19:09:20.263Z,97.66
2023-12-21T19:11:49.006Z,97.61
2023-12-21T19:14:18.555Z,97.53
2023-12-21T19:16:47.316Z,97.53
2023-12-21T19:19:16.039Z,97.30
2023-12-21T19:21:47.934Z,97.16
2023-12-21T19:24:16.237Z,97.00
2023-12-21T19:26:45.905Z,96.91
2023-12-21T19:29:14.095Z,96.75
2023-12-21T19:31:42.519Z,96.60
2023-12-21T19:34:10.781Z,96.55
2023-12-21T19:36:38.984Z,96.43
2023-12-21T19:39:08.228Z,96.40
2023-12-21T19:41:36.935Z,96.42
2023-12-21T19:44:07.068Z,96.38
2023-12-21T19:46:35.455Z,96.36
2023-12-21T19:49:03.724Z,96.41
2023-12-21T19:51:31.984Z,96.38
2023-12-21T19:54:00.777Z,96.34
2023-12-21T19:56:29.054Z,96.17
2023-12-21T19:58:57.298Z,96.16
2023-12-21T20:01:27.308Z,96.13
2023-12-21T20:03:55.514Z,96.01
2023-12-21T20:06:23.874Z,95.87
2023-12-21T20:08:52.046Z,95.71
2023-12-21T20:11:20.867Z,95.65
2023-12-21T20:13:49.897Z,95.59
2023-12-21T20:16:21.451Z,95.52
2023-12-21T20:18:51.847Z,95.46
2023-12-21T20:21:20.284Z,95.42
2023-12-21T20:23:51.149Z,95.42
2023-12-21T20:26:20.002Z,95.37
2023-12-21T20:28:48.322Z,95.39
2023-12-21T20:31:17.019Z,95.37
2023-12-21T20:33:47.600Z,95.31
2023-12-21T20:36:17.418Z,95.30
2023-12-21T20:38:49.116Z,95.09
2023-12-21T20:41:17.745Z,95.22
2023-12-21T20:43:48.388Z,95.03
2023-12-21T20:46:17.419Z,94.72
2023-12-21T20:48:46.251Z,94.57
2023-12-21T20:51:15.165Z,94.46
2023-12-21T20:53:45.307Z,94.49
2023-12-21T20:56:13.983Z,94.20
2023-12-21T20:58:43.917Z,94.17
2023-12-21T21:01:12.785Z,93.89
2023-12-21T21:03:41.038Z,93.86
2023-12-21T21:06:09.240Z,93.89
2023-12-21T21:08:37.424Z,93.67
2023-12-21T21:11:07.896Z,93.40
2023-12-21T21:13:37.867Z,93.10
2023-12-21T21:16:08.355Z,93.11
2023-12-21T21:18:37.320Z,93.07
2023-12-21T21:21:06.322Z,93.04
2023-12-21T21:23:34.959Z,93.12
2023-12-21T21:26:03.687Z,93.10
2023-12-21T21:28:33.870Z,93.12
2023-12-21T21:31:02.764Z,93.00
2023-12-21T21:33:31.229Z,93.07
2023-12-21T21:36:00.349Z,93.05
2023-12-21T21:38:31.223Z,92.74
2023-12-21T21:41:00.927Z,92.66
2023-12-21T21:43:33.202Z,92.56
2023-12-21T21:46:07.309Z,92.34
2023-12-21T21:48:38.562Z,91.95
2023-12-21T21:51:07.846Z,91.80
2023-12-21T21:53:41.965Z,91.86
2023-12-21T21:56:10.240Z,91.62
2023-12-21T21:58:38.553Z,91.12
2023-12-21T22:01:09.013Z,90.76
2023-12-21T22:03:37.309Z,90.12
2023-12-21T22:06:06.280Z,89.74
2023-12-21T22:08:34.583Z,89.36
2023-12-21T22:11:03.596Z,89.36
2023-12-21T22:13:32.505Z,89.27
2023-12-21T22:16:01.305Z,88.95
2023-12-21T22:18:31.603Z,88.77
2023-12-21T22:21:00.654Z,88.88
2023-12-21T22:23:30.937Z,89.21
2023-12-21T22:25:59.790Z,89.28
2023-12-21T22:28:28.917Z,88.87
2023-12-21T22:30:58.793Z,88.75
2023-12-21T22:33:27.258Z,89.02
2023-12-21T22:35:59.187Z,88.93
2023-12-21T22:38:27.762Z,88.98
2023-12-21T22:40:57.467Z,88.55
2023-12-21T22:43:34.995Z,88.80
2023-12-21T22:46:13.625Z,89.03
2023-12-21T22:48:44.646Z,89.22
2023-12-21T22:51:14.779Z,89.15
2023-12-21T22:53:43.367Z,89.39
2023-12-21T22:56:12.581Z,89.19
2023-12-21T22:58:41.540Z,88.73
2023-12-21T23:01:09.966Z,89.07
2023-12-21T23:03:38.265Z,89.07
2023-12-21T23:06:08.626Z,89.25
2023-12-21T23:08:38.878Z,89.02
2023-12-21T23:11:07.313Z,88.79
2023-12-21T23:13:36.196Z,88.66
2023-12-21T23:16:06.409Z,88.31
2023-12-21T23:18:37.919Z,88.32
2023-12-21T23:21:08.560Z,88.22
2023-12-21T23:23:40.071Z,87.75
2023-12-21T23:26:09.824Z,87.17
2023-12-21T23:28:37.932Z,86.46
2023-12-21T23:31:06.922Z,86.67
2023-12-21T23:33:36.818Z,86.26
2023-12-21T23:36:06.142Z,86.57
2023-12-21T23:38:34.585Z,86.37
2023-12-21T23:41:04.836Z,86.68
2023-12-21T23:43:37.646Z,86.54
2023-12-21T23:46:06.353Z,87.14
2023-12-21T23:48:34.724Z,87.35
2023-12-21T23:51:06.434Z,87.00
2023-12-21T23:53:34.805Z,87.01
2023-12-21T23:56:05.858Z,86.74
2023-12-21T23:58:35.429Z,86.74
